Time;durP1;ratioP1;P1;durP2;ratioP2;P2;SDS_P1;SDS_P2;PMS_P1;PMS_P2;Temp;Humidity;BMP_temperature;BMP_pressure;BME280_temperature;BME280_humidity;BME280_pressure;Samples;Min_cycle;Max_cycle;Signal;HPM_P1;HPM_P2
2023/07/29 00:00:15;;;;;;;13.80;5.20;;;;;;;19.09;60.26;100653.93;107430;1253;110746;-61
2023/07/29 00:03:04;;;;;;;9.60;4.50;;;;;;;19.04;60.48;100649.58;107565;1254;110711;-61
2023/07/29 00:05:32;;;;;;;16.40;5.30;;;;;;;19.01;60.73;100647.57;107550;1256;108418;-60
2023/07/29 00:08:01;;;;;;;19.00;5.00;;;;;;;18.97;60.74;100648.86;107522;1256;96478;-59
2023/07/29 00:10:31;;;;;;;11.50;5.00;;;;;;;18.96;60.92;100648.27;107470;1254;96638;-60
2023/07/29 00:13:00;;;;;;;13.70;4.90;;;;;;;18.93;61.19;100644.23;107569;1256;109951;-61
2023/07/29 00:15:28;;;;;;;15.30;5.00;;;;;;;18.88;61.70;100643.39;107431;1254;110100;-60
2023/07/29 00:17:56;;;;;;;11.50;5.30;;;;;;;18.83;61.62;100646.27;107516;1254;107651;-59
2023/07/29 00:20:24;;;;;;;15.30;5.10;;;;;;;18.77;61.92;100646.55;107548;1253;96574;-61
2023/07/29 00:22:54;;;;;;;8.50;4.90;;;;;;;18.73;62.10;100648.39;107542;1254;96558;-61
2023/07/29 00:25:23;;;;;;;19.60;6.40;;;;;;;18.66;62.47;100652.64;107555;1254;110756;-60
2023/07/29 00:27:52;;;;;;;12.80;5.40;;;;;;;18.62;62.50;100650.78;107525;1254;109657;-63
2023/07/29 00:30:22;;;;;;;11.00;5.00;;;;;;;18.59;62.95;100649.45;107560;1254;108632;-63
2023/07/29 00:32:50;;;;;;;12.90;4.60;;;;;;;18.54;63.24;100647.30;107519;1254;96489;-61
2023/07/29 00:35:19;;;;;;;9.80;5.40;;;;;;;18.46;63.93;100645.50;107580;1256;97118;-61
2023/07/29 00:37:47;;;;;;;8.00;4.70;;;;;;;18.43;63.62;100645.02;107557;1254;110788;-61
2023/07/29 00:40:20;;;;;;;9.00;5.20;;;;;;;18.42;63.46;100645.52;107558;1254;110114;-60
2023/07/29 00:42:50;;;;;;;19.40;5.20;;;;;;;18.41;63.62;100648.13;107468;1253;106302;-61
2023/07/29 00:45:18;;;;;;;17.60;5.20;;;;;;;18.40;63.79;100648.27;107506;1254;96494;-60
2023/07/29 00:47:48;;;;;;;20.40;5.50;;;;;;;18.40;63.81;100651.58;107494;1254;96426;-62
2023/07/29 00:50:17;;;;;;;11.80;4.90;;;;;;;18.39;64.08;100647.54;107567;1254;109366;-61
2023/07/29 00:52:46;;;;;;;14.90;5.00;;;;;;;18.35;64.15;100649.08;107563;1254;109147;-60
2023/07/29 00:55:14;;;;;;;20.30;5.80;;;;;;;18.32;64.41;100650.39;107530;1254;106906;-59
2023/07/29 00:57:47;;;;;;;9.40;4.50;;;;;;;18.28;64.52;100649.30;107552;1252;96356;-61
2023/07/29 01:00:16;;;;;;;14.10;4.80;;;;;;;18.23;65.00;100649.44;107578;1254;96395;-61
2023/07/29 01:02:44;;;;;;;13.10;5.40;;;;;;;18.18;65.02;100646.52;107534;1254;110370;-61
2023/07/29 01:05:16;;;;;;;8.30;4.80;;;;;;;18.16;65.11;100646.33;107591;1254;110054;-61
2023/07/29 01:07:52;;;;;;;15.00;5.30;;;;;;;18.14;64.97;100644.73;107573;1252;107137;-61
2023/07/29 01:11:01;;;;;;;13.60;5.40;;;;;;;18.13;64.99;100645.55;107542;1254;96325;-61
2023/07/29 01:13:55;;;;;;;12.00;5.10;;;;;;;18.13;64.85;100646.70;107584;1254;96385;-62
2023/07/29 01:16:38;;;;;;;13.80;5.90;;;;;;;18.12;65.06;100646.27;107618;1254;109351;-61
2023/07/29 01:19:20;;;;;;;13.80;5.00;;;;;;;18.10;65.23;100645.55;107556;1256;109540;-61
2023/07/29 01:21:49;;;;;;;12.90;5.10;;;;;;;18.07;65.29;100641.78;107520;1253;107871;-59
2023/07/29 01:24:18;;;;;;;18.10;4.60;;;;;;;18.06;65.38;100640.72;107536;1253;96555;-60
2023/07/29 01:26:46;;;;;;;10.30;4.40;;;;;;;18.04;65.51;100642.90;107543;1252;97006;-60
2023/07/29 01:29:15;;;;;;;9.20;4.50;;;;;;;18.03;65.61;100639.20;107542;1254;110178;-61
2023/07/29 01:31:46;;;;;;;8.20;4.50;;;;;;;18.01;65.72;100644.30;107553;1254;109604;-61
2023/07/29 01:34:26;;;;;;;12.40;5.10;;;;;;;17.97;65.95;100646.61;107453;1257;107946;-60
2023/07/29 01:36:59;;;;;;;10.70;4.80;;;;;;;17.96;66.00;100645.65;107505;1254;96555;-62
2023/07/29 01:39:35;;;;;;;12.70;4.60;;;;;;;17.94;65.98;100642.04;107457;1252;96731;-61
2023/07/29 01:42:03;;;;;;;11.30;4.90;;;;;;;17.96;66.02;100644.40;107583;1254;110875;-61
2023/07/29 01:44:33;;;;;;;11.40;5.60;;;;;;;17.95;66.21;100644.06;107557;1254;109082;-61
2023/07/29 01:47:01;;;;;;;11.20;4.50;;;;;;;17.97;66.43;100643.95;107541;1253;107787;-61
2023/07/29 01:49:29;;;;;;;12.10;4.20;;;;;;;17.98;66.57;100644.38;107430;1253;96552;-59
2023/07/29 01:52:00;;;;;;;;;;;;;;;18.02;66.66;100647.83;107574;1256;96488;-60
2023/07/29 01:54:28;;;;;;;;;;;;;;;18.04;66.56;100649.11;107446;1254;110421;-62
2023/07/29 01:56:56;;;;;;;;;;;;;;;18.03;66.54;100647.41;107416;1254;111690;-61
2023/07/29 01:59:24;;;;;;;;;;;;;;;18.05;66.38;100648.92;107569;1256;107884;-60
2023/07/29 02:01:52;;;;;;;;;;;;;;;18.05;66.34;100651.27;107549;1256;96498;-62
2023/07/29 02:04:23;;;;;;;;;;;;;;;18.05;66.21;100652.98;107637;1253;96385;-61
2023/07/29 02:06:57;;;;;;;;;;;;;;;18.05;66.24;100654.90;107573;1253;110352;-61
2023/07/29 02:09:25;;;;;;;;;;;;;;;18.03;65.99;100658.85;107468;1252;111120;-61
2023/07/29 02:11:57;;;;;;;;;;;;;;;18.00;66.40;100660.29;107544;1254;108725;-64
2023/07/29 02:14:25;;;;;;;;;;;;;;;17.96;66.54;100661.38;107603;1254;96469;-61
2023/07/29 02:16:54;;;;;;;;;;;;;;;17.93;67.06;100659.09;107570;1253;96360;-62
2023/07/29 02:19:22;;;;;;;;;;;;;;;17.89;68.13;100655.44;107581;1254;109971;-61
2023/07/29 02:21:51;;;;;;;;;;;;;;;17.86;67.53;100662.80;107607;1253;108100;-61
2023/07/29 02:24:21;;;;;;;;;;;;;;;17.86;67.68;100661.39;107556;1254;107827;-60
2023/07/29 02:26:50;;;;;;;;;;;;;;;17.86;67.45;100662.69;107565;1254;96564;-61
2023/07/29 02:29:27;;;;;;;;;;;;;;;17.83;67.26;100661.86;107453;1257;96461;-61
2023/07/29 02:31:55;;;;;;;;;;;;;;;17.81;67.40;100661.15;107558;1254;109652;-62
2023/07/29 02:34:26;;;;;;;;;;;;;;;17.81;67.30;100656.49;107563;1254;109280;-60
2023/07/29 02:36:55;;;;;;;;;;;;;;;17.78;66.96;100654.54;107409;1253;107896;-61
2023/07/29 02:39:23;;;;;;;;;;;;;;;17.73;67.80;100650.77;107389;1254;96463;-62
2023/07/29 02:41:52;;;;;;;;;;;;;;;17.69;67.71;100645.27;107570;1254;96588;-60
2023/07/29 02:44:20;;;;;;;;;;;;;;;17.68;67.59;100645.69;107574;1253;110417;-61
2023/07/29 02:46:48;;;;;;;;;;;;;;;17.70;67.90;100643.88;107407;1254;109566;-60
2023/07/29 02:49:17;;;;;;;;;;;;;;;17.70;67.72;100646.39;107456;1254;107720;-60
2023/07/29 02:51:45;;;;;;;;;;;;;;;17.69;67.48;100645.86;107464;1254;96495;-62
2023/07/29 02:54:13;;;;;;;;;;;;;;;17.65;67.39;100647.73;107593;1254;96475;-62
2023/07/29 02:56:42;;;;;;;;;;;;;;;17.61;68.12;100647.54;107395;1254;110363;-62
2023/07/29 02:59:10;;;;;;;;;;;;;;;17.55;68.51;100648.27;107458;1252;109907;-61
2023/07/29 03:01:38;;;;;;;;;;;;;;;17.50;68.66;100654.10;107566;1254;108559;-59
2023/07/29 03:04:06;;;;;;;;;;;;;;;17.46;68.32;100655.77;107555;1253;96478;-60
2023/07/29 03:06:34;;;;;;;;;;;;;;;17.45;68.23;100658.63;107566;1254;96542;-62
2023/07/29 03:09:03;;;;;;;;;;;;;;;17.45;68.04;100669.75;107589;1253;110448;-63
2023/07/29 03:11:31;;;;;;;;;;;;;;;17.44;68.03;100670.95;107565;1254;109608;-61
2023/07/29 03:14:00;;;;;;;;;;;;;;;17.44;67.74;100672.55;107567;1253;107631;-62
2023/07/29 03:16:29;;;;;;;;;;;;;;;17.43;67.71;100675.05;107570;1254;96599;-61
2023/07/29 03:18:59;;;;;;;;;;;;;;;17.44;67.66;100672.95;107618;1253;96393;-59
2023/07/29 03:21:27;;;;;;;;;;;;;;;17.48;67.91;100675.54;107620;1254;109765;-61
2023/07/29 03:23:55;;;;;;;;;;;;;;;17.51;68.06;100675.89;107562;1253;109272;-61
2023/07/29 03:26:24;;;;;;;;;;;;;;;17.53;68.29;100679.21;107584;1256;107649;-60
2023/07/29 03:28:52;;;;;;;;;;;;;;;17.55;68.06;100677.40;107433;1252;96547;-61
2023/07/29 03:31:20;;;;;;;;;;;;;;;17.55;67.76;100679.41;107587;1254;96456;-61
2023/07/29 03:33:49;;;;;;;;;;;;;;;17.56;67.91;100682.37;107503;1252;110570;-61
2023/07/29 03:36:19;;;;;;;;;;;;;;;17.59;68.11;100682.44;107587;1256;110438;-60
2023/07/29 03:38:47;;;;;;;;;;;;;;;17.62;68.03;100680.61;107567;1256;107831;-60
2023/07/29 03:41:16;;;;;;;;;;;;;;;17.65;67.78;100682.21;107393;1253;96379;-61
2023/07/29 03:43:44;;;;;;;;;;;;;;;17.65;67.56;100681.80;107576;1252;96466;-65
2023/07/29 03:46:21;;;;;;;;;;;;;;;17.66;67.55;100682.02;107584;1254;111893;-62
2023/07/29 03:48:51;;;;;;;;;;;;;;;17.69;67.84;100679.89;107469;1253;108288;-63
2023/07/29 03:51:20;;;;;;;;;;;;;;;17.72;68.11;100681.73;107558;1254;107589;-61
2023/07/29 03:53:48;;;;;;;;;;;;;;;17.76;68.04;100678.40;107565;1253;96488;-60
2023/07/29 03:56:17;;;;;;;;;;;;;;;17.80;68.30;100680.14;107590;1253;96513;-60
2023/07/29 03:58:46;;;;;;;;;;;;;;;17.86;68.09;100679.55;107589;1256;109878;-61
2023/07/29 04:01:16;;;;;;;;;;;;;;;17.89;67.93;100681.73;107572;1254;108970;-60
2023/07/29 04:03:46;;;;;;;;;;;;;;;17.93;67.76;100680.36;107653;1254;107660;-60
2023/07/29 04:06:14;;;;;;;;;;;;;;;17.94;67.48;100676.36;107446;1253;96421;-62
2023/07/29 04:08:42;;;;;;;;;;;;;;;17.94;67.28;100674.69;107450;1253;96460;-62
2023/07/29 04:11:11;;;;;;;;;;;;;;;17.94;67.42;100678.50;107485;1254;112193;-61
2023/07/29 04:13:39;;;;;;;;;;;;;;;17.96;67.39;100680.48;107630;1256;109527;-60
2023/07/29 04:16:07;;;;;;;;;;;;;;;18.01;67.62;100685.58;107447;1254;107820;-60
2023/07/29 04:18:36;;;;;;;;;;;;;;;18.07;67.72;100685.58;107578;1254;96465;-60
2023/07/29 04:21:05;;;;;;;;;;;;;;;18.13;67.65;100683.18;107578;1253;96361;-60
2023/07/29 04:23:33;;;;;;;;;;;;;;;18.21;67.96;100684.55;107593;1253;110457;-61
2023/07/29 04:26:02;;;;;;;;;;;;;;;18.29;67.92;100686.29;107591;1254;109324;-62
2023/07/29 04:28:30;;;;;;;;;;;;;;;18.36;67.48;100685.76;107432;1252;107934;-63
2023/07/29 04:30:59;;;;;;;;;;;;;;;18.43;67.27;100687.30;107567;1254;96471;-60
2023/07/29 04:33:29;;;;;;;;;;;;;;;18.49;67.34;100690.04;107598;1253;96563;-62
2023/07/29 04:35:58;;;;;;;;;;;;;;;18.57;67.40;100692.38;107576;1253;111582;-61
2023/07/29 04:38:30;;;;;;;;;;;;;;;18.64;67.32;100693.13;107630;1254;109490;-61
2023/07/29 04:41:02;;;;;;;;;;;;;;;18.72;67.10;100693.69;107181;1252;556285;-61
2023/07/29 04:43:31;;;;;;;;;;;;;;;18.80;67.03;100700.77;107571;1253;96479;-60
2023/07/29 04:45:59;;;;;;;;;;;;;;;18.87;66.81;100702.95;107615;1253;96552;-59
2023/07/29 04:48:28;;;;;;;;;;;;;;;18.95;66.78;100708.69;107445;1254;109985;-61
2023/07/29 04:50:57;;;;;;;;;;;;;;;19.00;65.92;100713.83;107621;1253;110340;-61
2023/07/29 04:53:25;;;;;;;;;;;;;;;19.06;64.98;100714.64;107595;1252;108366;-62
2023/07/29 04:55:53;;;;;;;;;;;;;;;19.11;64.32;100714.86;107617;1252;96470;-59
2023/07/29 04:58:21;;;;;;;;;;;;;;;19.17;63.73;100714.88;107630;1254;96494;-61
2023/07/29 05:00:49;;;;;;;;;;;;;;;19.23;63.69;100716.23;107623;1253;109838;-60
2023/07/29 05:03:18;;;;;;;;;;;;;;;19.30;63.20;100721.89;107483;1254;110164;-60
2023/07/29 05:05:47;;;;;;;;;;;;;;;19.37;62.85;100724.13;107435;1254;108567;-62
2023/07/29 05:08:15;;;;;;;;;;;;;;;19.43;62.20;100727.04;107453;1252;96494;-61
2023/07/29 05:10:43;;;;;;;;;;;;;;;19.50;61.37;100723.08;107611;1253;96590;-60
2023/07/29 05:13:11;;;;;;;;;;;;;;;19.58;60.79;100722.55;107615;1254;110617;-62
2023/07/29 05:15:39;;;;;;;;;;;;;;;19.67;60.16;100725.73;107465;1254;110048;-61
2023/07/29 05:18:08;;;;;;;;;;;;;;;19.75;59.66;100728.60;107564;1253;108185;-61
2023/07/29 05:20:36;;;;;;;;;;;;;;;19.81;59.23;100724.95;107626;1254;96552;-60
2023/07/29 05:23:04;;;;;;;;;;;;;;;19.87;59.10;100723.82;107625;1253;96366;-62
2023/07/29 05:25:34;;;;;;;;;;;;;;;19.94;58.85;100728.82;107602;1254;109968;-61
2023/07/29 05:28:03;;;;;;;;;;;;;;;20.02;58.61;100734.89;107629;1254;109622;-62
2023/07/29 05:30:33;;;;;;;;;;;;;;;20.10;58.38;100733.84;107621;1254;108053;-63
2023/07/29 05:33:02;;;;;;;;;;;;;;;20.17;57.94;100734.55;107620;1253;96367;-60
2023/07/29 05:35:30;;;;;;;;;;;;;;;20.25;56.98;100737.29;107647;1252;96347;-61
2023/07/29 05:37:59;;;;;;;;;;;;;;;20.34;55.99;100742.85;107590;1252;109605;-61
2023/07/29 05:40:27;;;;;;;;;;;;;;;20.44;55.98;100743.77;107588;1253;109110;-61
2023/07/29 05:42:56;;;;;;;;;;;;;;;20.54;56.27;100745.23;107468;1254;109193;-61
2023/07/29 05:45:24;;;;;;;;;;;;;;;20.63;56.15;100744.92;107523;1253;96561;-61
2023/07/29 05:47:54;;;;;;;;;;;;;;;20.70;55.73;100745.49;107607;1253;96383;-61
2023/07/29 05:50:23;;;;;;;;;;;;;;;20.77;55.15;100747.70;107585;1253;109961;-60
2023/07/29 05:52:51;;;;;;;;;;;;;;;20.85;55.22;100740.45;107636;1253;110405;-62
2023/07/29 05:55:19;;;;;;;;;;;;;;;20.90;55.07;100740.22;107499;1254;107796;-61
2023/07/29 05:57:47;;;;;;;;;;;;;;;20.96;54.96;100740.77;107584;1253;96477;-60
2023/07/29 06:00:15;;;;;;;;;;;;;;;21.03;55.13;100743.66;107523;1254;96502;-63
2023/07/29 06:02:50;;;;;;;;;;;;;;;21.09;54.48;100743.60;107618;1254;110827;-66
2023/07/29 06:05:20;;;;;;;;;;;;;;;21.17;53.11;100743.11;107580;1253;108296;-60
2023/07/29 06:07:48;;;;;;;;;;;;;;;21.27;52.62;100741.14;107572;1254;108642;-62
2023/07/29 06:10:19;;;;;;;;;;;;;;;21.39;52.67;100745.08;107570;1254;97300;-61
2023/07/29 06:12:48;;;;;;;;;;;;;;;21.48;52.10;100740.80;107520;1254;96464;-61
2023/07/29 06:15:16;;;;;;;;;;;;;;;21.58;52.03;100739.59;107620;1254;110515;-62
2023/07/29 06:17:44;;;;;;;;;;;;;;;21.69;51.43;100740.66;107467;1254;109353;-62
2023/07/29 06:20:12;;;;;;;;;;;;;;;21.79;51.45;100739.65;107473;1257;108452;-60
2023/07/29 06:22:41;;;;;;;;;;;;;;;21.87;51.02;100737.25;107573;1254;96484;-61
2023/07/29 06:25:09;;;;;;;;;;;;;;;21.99;50.58;100742.58;107606;1252;96501;-61
2023/07/29 06:27:39;;;;;;;;;;;;;;;22.10;50.69;100734.98;107612;1253;110122;-61
2023/07/29 06:30:07;;;;;;;;;;;;;;;22.24;49.72;100734.77;107613;1252;109355;-63
2023/07/29 06:32:35;;;;;;;;;;;;;;;22.37;49.12;100732.55;107575;1252;108012;-62
2023/07/29 06:35:04;;;;;;;;;;;;;;;22.53;48.93;100726.70;107591;1252;96470;-61
2023/07/29 06:37:33;;;;;;;;;;;;;;;22.67;49.21;100728.46;107553;1253;96462;-60
2023/07/29 06:40:01;;;;;;;;;;;;;;;22.78;48.57;100724.39;107621;1253;110732;-60
2023/07/29 06:42:29;;;;;;;;;;;;;;;22.89;48.69;100725.35;107571;1253;109024;-61
2023/07/29 06:44:57;;;;;;;;;;;;;;;23.00;48.22;100729.55;107602;1252;108137;-60
2023/07/29 06:47:26;;;;;;;;;;;;;;;23.10;47.51;100728.73;107642;1254;96487;-63
2023/07/29 06:49:54;;;;;;;;;;;;;;;23.17;47.77;100728.61;107613;1253;96366;-61
2023/07/29 06:52:22;;;;;;;;;;;;;;;23.27;46.64;100731.81;107621;1254;110923;-60
2023/07/29 06:54:51;;;;;;;;;;;;;;;23.38;45.74;100733.02;107632;1253;109673;-60
2023/07/29 06:57:19;;;;;;;;;;;;;;;23.50;45.09;100733.21;107580;1253;108745;-62
2023/07/29 06:59:50;;;;;;;;;;;;;;;23.66;45.72;100730.97;107535;1253;96513;-62
2023/07/29 07:02:21;;;;;;;;;;;;;;;23.81;46.12;100726.54;107594;1253;96392;-61
2023/07/29 07:04:49;;;;;;;;;;;;;;;23.95;45.82;100730.94;107587;1254;109870;-62
2023/07/29 07:07:18;;;;;;;;;;;;;;;24.07;45.41;100730.44;107605;1253;109248;-64
2023/07/29 07:09:46;;;;;;;;;;;;;;;24.21;44.94;100729.71;107596;1253;108056;-62
2023/07/29 07:12:15;;;;;;;;;;;;;;;24.37;44.76;100729.14;107577;1254;96470;-64
2023/07/29 07:14:43;;;;;;;;;;;;;;;24.54;44.79;100725.90;107649;1253;96470;-62
2023/07/29 07:17:11;;;;;;;;;;;;;;;24.74;45.19;100721.70;107569;1253;110514;-61
2023/07/29 07:19:42;;;;;;;;;;;;;;;24.93;45.14;100715.02;107611;1253;110102;-59
2023/07/29 07:22:10;;;;;;;;;;;;;;;25.13;45.10;100711.98;107561;1254;108591;-60
2023/07/29 07:24:39;;;;;;;;;;;;;;;25.31;44.68;100718.98;107615;1253;96369;-62
2023/07/29 07:27:07;;;;;;;;;;;;;;;25.47;43.69;100723.80;107632;1254;96480;-61
2023/07/29 07:29:35;;;;;;;;;;;;;;;25.61;42.39;100725.88;107618;1252;109853;-60
2023/07/29 07:32:03;;;;;;;;;;;;;;;25.74;41.23;100723.77;107598;1253;110071;-62
2023/07/29 07:34:33;;;;;;;;;;;;;;;25.85;41.21;100722.02;107595;1254;108155;-62
2023/07/29 07:37:01;;;;;;;;;;;;;;;25.88;39.29;100722.43;107567;1254;96370;-61
2023/07/29 07:39:29;;;;;;;;;;;;;;;25.95;38.51;100722.70;107607;1253;96470;-62
2023/07/29 07:41:58;;;;;;;;;;;;;;;26.10;39.26;100720.14;107648;1254;110406;-62
2023/07/29 07:44:26;;;;;;;;;;;;;;;26.20;39.52;100716.69;107605;1254;110023;-62
2023/07/29 07:46:54;;;;;;;;;;;;;;;26.30;39.60;100712.08;107583;1256;107963;-62
2023/07/29 07:49:22;;;;;;;;;;;;;;;26.36;38.82;100708.31;107562;1254;96468;-64
2023/07/29 07:51:51;;;;;;;;;;;;;;;26.40;38.36;100709.94;107623;1253;96373;-61
2023/07/29 07:54:19;;;;;;;;;;;;;;;26.42;38.08;100705.73;107621;1253;113203;-62
2023/07/29 07:56:47;;;;;;;;;;;;;;;26.49;38.42;100704.82;107610;1256;109377;-61
2023/07/29 07:59:15;;;;;;;;;;;;;;;26.56;38.46;100706.68;107590;1254;107821;-63
2023/07/29 08:01:45;;;;;;;;;;;;;;;26.64;37.65;100705.91;107607;1253;96500;-65
2023/07/29 08:04:13;;;;;;;;;;;;;;;26.65;37.91;100704.87;107602;1254;96373;-62
2023/07/29 08:06:42;;;;;;;;;;;;;;;26.66;37.94;100700.92;107619;1253;109873;-63
2023/07/29 08:09:10;;;;;;;;;;;;;;;26.62;38.24;100698.73;107561;1253;109224;-62
2023/07/29 08:11:38;;;;;;;;;;;;;;;26.62;38.63;100696.27;107593;1254;107581;-62
2023/07/29 08:14:06;;;;;;;;;;;;;;;26.69;38.97;100695.77;107602;1252;96502;-63
2023/07/29 08:16:34;;;;;;;;;;;;;;;26.76;38.98;100696.86;107586;1254;96449;-63
2023/07/29 08:19:03;;;;;;;;;;;;;;;26.81;38.48;100693.68;107426;1253;110292;-63
2023/07/29 08:21:31;;;;;;;;;;;;;;;26.85;37.92;100696.95;107432;1253;110816;-63
2023/07/29 08:23:59;;;;;;;;;;;;;;;26.92;37.61;100696.53;107575;1256;107081;-62
2023/07/29 08:26:28;;;;;;;;;;;;;;;27.08;38.17;100696.25;107587;1254;96550;-64
2023/07/29 08:29:20;;;;;;;;;;;;;;;27.20;36.94;100697.19;107564;1254;96546;-65
2023/07/29 08:31:55;;;;;;;;;;;;;;;27.37;37.45;100691.95;107580;1256;110718;-62
2023/07/29 08:34:23;;;;;;;;;;;;;;;27.59;37.60;100691.84;107601;1254;108878;-62
2023/07/29 08:36:51;;;;;;;;;;;;;;;27.81;36.50;100691.84;107579;1254;108666;-61
2023/07/29 08:39:19;;;;;;;;;;;;;;;27.93;36.76;100691.96;107573;1254;96539;-63
2023/07/29 08:42:10;;;;;;;;;;;;;;;28.06;36.59;100691.17;107613;1256;96556;-64
2023/07/29 08:44:43;;;;;;;;;;;;;;;28.26;36.03;100688.00;107572;1254;110327;-63
2023/07/29 08:47:13;;;;;;;;;;;;;;;28.36;35.47;100688.80;107617;1252;109563;-64
2023/07/29 08:49:42;;;;;;;;;;;;;;;28.42;34.91;100684.11;107592;1252;108070;-63
2023/07/29 08:52:11;;;;;;;;;;;;;;;28.57;34.77;100685.39;107596;1253;96523;-62
2023/07/29 08:54:40;;;;;;;;;;;;;;;28.61;34.11;100686.65;107580;1254;96469;-64
2023/07/29 08:57:08;;;;;;;;;;;;;;;28.57;34.78;100683.29;107578;1256;109655;-63
2023/07/29 08:59:37;;;;;;;;;;;;;;;28.62;35.19;100681.48;107578;1253;108404;-63
2023/07/29 09:02:05;;;;;;;;;;;;;;;28.73;34.20;100682.23;107577;1254;109194;-63
2023/07/29 09:04:34;;;;;;;;;;;;;;;28.94;34.07;100680.67;107589;1254;96481;-62
2023/07/29 09:07:02;;;;;;;;;;;;;;;29.14;33.42;100677.04;107553;1254;96589;-61
2023/07/29 09:09:31;;;;;;;;;;;;;;;29.34;33.25;100680.83;107621;1254;111177;-63
2023/07/29 09:11:59;;;;;;;;;;;;;;;29.41;32.38;100680.73;107592;1254;109535;-63
2023/07/29 09:14:27;;;;;;;;;;;;;;;29.43;32.72;100672.70;107522;1252;107440;-62
2023/07/29 09:16:59;;;;;;;;;;;;;;;29.76;33.31;100672.77;107580;1254;96453;-62
2023/07/29 09:19:28;;;;;;;;;;;;;;;29.93;31.53;100671.27;107647;1253;96367;-61
2023/07/29 09:21:56;;;;;;;;;;;;;;;30.16;32.30;100663.58;107595;1254;109973;-63
2023/07/29 09:24:25;;;;;;;;;;;;;;;30.45;31.17;100662.91;107601;1254;109257;-61
2023/07/29 09:26:54;;;;;;;;;;;;;;;30.66;30.91;100659.45;107585;1254;108317;-61
2023/07/29 09:29:23;;;;;;;;;;;;;;;30.84;31.55;100658.15;107569;1254;96480;-62
2023/07/29 09:32:42;;;;;;;3.30;1.40;;;;;;;31.13;30.14;100665.03;104250;1294;636261;-62
2023/07/29 09:35:12;;;;;;;2.20;1.60;;;;;;;31.32;29.52;100665.70;106629;1267;95804;-61
2023/07/29 09:37:41;;;;;;;5.50;2.30;;;;;;;31.59;29.37;100658.35;106712;1267;95788;-62
2023/07/29 09:40:15;;;;;;;2.60;2.00;;;;;;;31.95;29.66;100655.05;106681;1269;107899;-61
2023/07/29 09:42:55;;;;;;;8.10;4.90;;;;;;;32.40;28.03;100667.59;106658;1269;110132;-61
2023/07/29 09:45:25;;;;;;;2.00;1.40;;;;;;;32.50;27.30;100671.55;106319;1264;588791;-61
2023/07/29 09:47:54;;;;;;;3.70;1.30;;;;;;;32.60;26.53;100666.98;106772;1269;95799;-60
2023/07/29 09:50:24;;;;;;;3.00;1.40;;;;;;;32.88;27.21;100666.42;106797;1264;95678;-62
2023/07/29 09:52:55;;;;;;;2.60;1.40;;;;;;;33.24;26.98;100658.47;106725;1263;108709;-62
2023/07/29 09:55:24;;;;;;;3.40;1.60;;;;;;;33.63;26.61;100661.96;106801;1268;110015;-61
2023/07/29 09:57:59;;;;;;;4.60;1.80;;;;;;;33.79;25.71;100662.05;106754;1267;108428;-62
2023/07/29 10:00:32;;;;;;;6.50;2.20;;;;;;;33.18;26.12;100661.64;106727;1263;95801;-62
2023/07/29 10:03:00;;;;;;;1.50;1.20;;;;;;;32.85;26.96;100656.48;107701;1251;96855;-63
2023/07/29 10:05:29;;;;;;;4.20;1.70;;;;;;;33.33;27.00;100650.70;107683;1256;109284;-61
2023/07/29 10:07:58;;;;;;;8.20;1.70;;;;;;;33.78;26.44;100652.95;107675;1251;108938;-62
2023/07/29 10:10:28;;;;;;;5.80;1.40;;;;;;;33.74;26.11;100651.70;107664;1256;107239;-62
2023/07/29 10:12:56;;;;;;;2.30;1.50;;;;;;;33.64;25.57;100648.19;107613;1257;95809;-62
2023/07/29 10:15:26;;;;;;;2.20;1.50;;;;;;;33.75;26.12;100650.98;107700;1251;95775;-61
2023/07/29 10:17:54;;;;;;;4.60;1.30;;;;;;;34.24;25.98;100646.51;107645;1251;108457;-60
2023/07/29 10:20:23;;;;;;;1.70;1.50;;;;;;;34.67;25.05;100641.29;107658;1251;109839;-60
2023/07/29 10:22:53;;;;;;;3.40;1.50;;;;;;;35.04;24.57;100646.21;107609;1255;108855;-62
2023/07/29 10:25:24;;;;;;;1.80;1.40;;;;;;;35.38;24.59;100642.46;107616;1251;95864;-61
2023/07/29 10:27:57;;;;;;;6.00;1.60;;;;;;;35.93;24.10;100641.23;107640;1256;95874;-63
2023/07/29 10:30:28;;;;;;;6.00;1.90;;;;;;;36.10;23.43;100642.55;107696;1251;109526;-62
2023/07/29 10:33:01;;;;;;;3.60;1.50;;;;;;;36.46;23.40;100643.10;107624;1252;109933;-62
2023/07/29 10:35:33;;;;;;;7.50;1.30;;;;;;;36.60;22.75;100641.67;107678;1256;108077;-63
2023/07/29 10:38:11;;;;;;;3.60;1.40;;;;;;;37.10;23.37;100635.31;107635;1251;95698;-61
2023/07/29 10:40:56;;;;;;;6.70;1.70;;;;;;;37.62;23.32;100626.32;107610;1254;95816;-62
2023/07/29 10:43:33;;;;;;;9.60;1.70;;;;;;;38.01;22.91;100625.47;107697;1251;108215;-62
2023/07/29 10:46:20;;;;;;;5.50;1.50;;;;;;;38.62;22.74;100620.33;107569;1256;109800;-63
2023/07/29 10:48:49;;;;;;;3.70;1.40;;;;;;;39.18;21.36;100620.21;107528;1256;107927;-63
2023/07/29 10:51:35;;;;;;;5.60;1.50;;;;;;;39.50;20.66;100627.05;107616;1254;95792;-63
2023/07/29 10:54:14;;;;;;;3.10;1.20;;;;;;;39.65;20.64;100620.05;107530;1254;95765;-62
2023/07/29 10:56:50;;;;;;;2.80;1.80;;;;;;;39.80;20.15;100623.80;107497;1254;110568;-62
2023/07/29 10:59:18;;;;;;;3.50;1.60;;;;;;;40.02;20.54;100620.60;107543;1254;108685;-60
2023/07/29 11:01:57;;;;;;;4.90;1.30;;;;;;;40.40;20.14;100619.20;107572;1252;108496;-61
2023/07/29 11:04:26;;;;;;;5.20;1.50;;;;;;;40.73;19.89;100616.20;107627;1251;95784;-61
2023/07/29 11:07:27;;;;;;;5.40;1.60;;;;;;;41.13;20.07;100612.58;107629;1251;95865;-60
2023/07/29 11:10:01;;;;;;;4.70;1.40;;;;;;;41.32;18.64;100607.77;107680;1251;109245;-62
2023/07/29 11:12:54;;;;;;;2.90;1.30;;;;;;;41.02;18.39;100611.71;107641;1254;109322;-61
2023/07/29 11:15:28;;;;;;;4.20;1.40;;;;;;;40.98;18.65;100605.40;107581;1257;108992;-62
2023/07/29 11:18:00;;;;;;;1.60;1.20;;;;;;;41.33;18.56;100597.54;107617;1254;95879;-61
2023/07/29 11:20:33;;;;;;;2.60;1.50;;;;;;;41.62;17.96;100597.43;107656;1251;95864;-59
2023/07/29 11:23:05;;;;;;;1.50;1.30;;;;;;;41.81;18.58;100592.86;107651;1257;109579;-60
2023/07/29 11:25:35;;;;;;;;;;;;;;;41.98;18.28;100586.06;107632;1254;109143;-63
2023/07/29 11:28:07;;;;;;;3.00;1.40;;;;;;;41.95;18.30;100586.23;107557;1254;108758;-61
2023/07/29 11:30:39;;;;;;;4.60;1.20;;;;;;;41.93;17.47;100584.55;107606;1251;95802;-60
2023/07/29 11:33:07;;;;;;;6.90;1.50;;;;;;;42.02;17.73;100584.90;107653;1251;95832;-62
2023/07/29 11:35:35;;;;;;;2.40;1.50;;;;;;;42.14;17.86;100583.02;107568;1251;109307;-61
2023/07/29 11:38:04;;;;;;;2.40;1.30;;;;;;;42.29;17.58;100580.26;107482;1254;109403;-61
2023/07/29 11:40:34;;;;;;;2.90;1.40;;;;;;;42.32;17.53;100577.02;107589;1254;107896;-62
2023/07/29 11:43:18;;;;;;;7.00;1.40;;;;;;;42.48;17.36;100572.73;107610;1251;95772;-60
2023/07/29 11:45:47;;;;;;;2.60;1.10;;;;;;;42.79;17.53;100573.55;107677;1251;95796;-62
2023/07/29 11:48:32;;;;;;;4.20;1.40;;;;;;;43.26;17.27;100567.44;107643;1254;109495;-62
2023/07/29 11:51:00;;;;;;;7.20;1.50;;;;;;;43.49;17.17;100566.43;107572;1254;109239;-62
2023/07/29 11:53:32;;;;;;;4.40;1.30;;;;;;;44.01;16.80;100562.31;107558;1251;108619;-62
2023/07/29 11:56:03;;;;;;;11.30;1.50;;;;;;;44.33;16.61;100564.39;107642;1252;95849;-61
2023/07/29 11:58:31;;;;;;;20.60;2.90;;;;;;;44.48;17.03;100563.58;107645;1251;95770;-63
2023/07/29 12:00:59;;;;;;;5.10;1.40;;;;;;;43.80;16.95;100563.70;107648;1251;108546;-61
2023/07/29 12:03:28;;;;;;;5.30;1.40;;;;;;;43.14;16.99;100564.14;107587;1254;110875;-61
2023/07/29 12:05:57;;;;;;;4.30;1.30;;;;;;;42.37;17.42;100557.95;107590;1254;108378;-61
2023/07/29 12:08:26;;;;;;;6.50;1.40;;;;;;;42.00;17.56;100567.31;107545;1254;95806;-61